Logo AVAMET
Benvolgut visitant, si us plau, ingressa Recuperar contrasenya
AVAMET paisatges

Inforatge Catadau Lloma Molina

Dades diàries. Acumulats / Últims 30 dies disponibles

Data Temperatura (°C) Humitat rel. (%) Pressió rel. (hPa) Vent (km/h) Precipitació
Mínima Mitjana Màxima Amplitud
tèrmica
Mínima Mitjana Màxima Mínima Mitjana Màxima Predom. Mitjana Ràfega
màxima
Total
(mm)
Índex-n
Mínima Mitjana Màxima Mínima Mitjana Màxima n
0 a 1
P0 max
mm 5'
Dades mensuals acumulades fins l'últim dia disponible
05/2020 11,8 15,4 19,3 20,1 18,0 24,9 31,0 19,2 29 67 94 1.003 1.017 1.029   8,7 61,2 22,8
Dades anuals acumulades fins l'últim dia disponible
2020 2,7 10,6 19,3 14,5 6,9 18,9 31,0 28,3 22 72 98 997 1.020 1.034   9,0 127,1 360,4
Últims 30 dies disponibles
27-05-2020 15,9     20,4     25,7 9,8 44 69 88 1.025 1.026 1.027 SE 9,3 35,4 0,0
26-05-2020 15,3     20,2     24,9 9,6 48 72 90 1.024 1.026 1.027 ENE 6,4 30,6 0,0
25-05-2020 14,7     19,2     23,1 8,4 56 72 85 1.024 1.026 1.028 W 5,6 25,7 0,0
24-05-2020 17,8     20,2     23,4 5,6 67 79 92 1.027 1.028 1.029 E 7,9 27,4 0,0
23-05-2020 17,4     22,5     27,3 9,9 46 63 78 1.023 1.025 1.027 W 7,2 25,7 0,0
22-05-2020 19,3     23,9     29,3 10,0 42 57 75 1.021 1.023 1.025 W 7,2 24,1 0,0
21-05-2020 16,2     22,9     29,2 13,0 37 58 84 1.018 1.019 1.022 W 6,4 25,7 0,0
20-05-2020 17,2     22,8     29,0 11,8 40 58 84 1.015 1.016 1.018 W 7,6 24,1 0,0
19-05-2020 14,6     22,3     30,7 16,1 29 56 83 1.015 1.018 1.021 W 6,8 25,7 0,0
18-05-2020 13,8     20,1     26,2 12,4 46 66 87 1.018 1.020 1.022 W 6,4 27,4 0,0
17-05-2020 13,9     18,4     23,0 9,1 51 71 87 1.019 1.020 1.022 E 5,3 24,1 0,0
16-05-2020 14,4     16,5     19,3 4,9 69 79 89 1.015 1.016 1.019 NW 5,8 25,7 1,0
15-05-2020 12,8     16,1     18,8 6,0 58 75 93 1.010 1.012 1.015 ENE 5,6 27,4 0,4
14-05-2020 11,8     15,2     18,0 6,2 54 73 92 1.003 1.005 1.010 WNW 14,5 61,2 10,8 0,26 0,80
13-05-2020 13,3     18,2     23,7 10,4 40 60 78 1.004 1.006 1.007 W 10,8 43,5 0,0
12-05-2020 14,4     17,8     21,2 6,8 56 71 89 1.007 1.009 1.012 ENE 8,2 38,6 1,6
11-05-2020 15,4     19,4     24,0 8,6 45 58 74 1.006 1.008 1.012 W 20,4 57,9 0,0
10-05-2020 13,7     18,1     23,1 9,4 39 67 94 1.004 1.006 1.010 W 13,7 54,7 9,0 0,52 4,60
09-05-2020 14,8     18,3     22,7 7,9 67 83 93 1.009 1.012 1.016 E 6,6 25,7 0,0
08-05-2020 14,7     18,4     21,8 7,1 65 78 91 1.014 1.017 1.019 E 6,8 37,0 0,0
07-05-2020 14,9     19,6     23,8 8,9 47 72 91 1.018 1.019 1.020 ENE 6,6 29,0 0,0
06-05-2020 16,1     21,1     26,3 10,2 49 66 90 1.015 1.017 1.019 W 6,6 32,2 0,0
05-05-2020 16,0     21,6     29,1 13,1 38 68 90 1.013 1.014 1.016 W 5,5 25,7 0,0
04-05-2020 15,2     19,6     24,5 9,3 59 77 88 1.014 1.016 1.018 W 5,0 19,3 0,0
03-05-2020 17,8     22,9     26,8 9,0 35 55 84 1.017 1.018 1.020 W 7,4 27,4 0,0
02-05-2020 18,4     24,8     31,0 12,6 29 49 69 1.016 1.018 1.020 W 17,7 51,5 0,0
01-05-2020 16,1     21,6     27,7 11,6 41 54 68 1.015 1.018 1.019 W 16,9 57,9 0,0
30-04-2020 16,3     19,7     24,4 8,1 40 54 67 1.015 1.016 1.018 O 16,7 53,1 0,0
29-04-2020 14,9     19,4     24,6 9,7 33 46 57 1.015 1.017 1.019 W 15,9 43,5 0,0
28-04-2020 12,4     17,2     22,4 10,0 37 59 77 1.013 1.014 1.016 W 15,3 45,1 0,0
Últims 13 mesos disponibles
04/2020 7,4 11,6 16,3 14,8 14,6 19,1 24,6 17,2 46 78 94 1.005 1.016 1.026 W 7,7 59,5 58,4
03/2020 5,1 9,9 16,2 13,2 8,1 17,2 25,7 20,6 42 72 96 1.006 1.017 1.027 NW 11,4 127,1 113,4
02/2020 5,2 9,7 14,9 14,4 12,4 19,9 24,4 19,2 34 68 94 1.014 1.025 1.032 W 7,7 69,2 7,0
01/2020 2,7 7,1 14,2 10,6 6,9 14,5 18,5 15,8 50 74 96 1.015 1.025 1.032 W 9,3 77,2 158,8
12/2019 4,0 10,0 16,6 13,1 10,7 16,5 23,3 19,3 49 70 96 1.001 1.018 1.032 W 11,8 112,7 104,2
11/2019 5,3 11,5 19,7 14,6 14,1 18,3 26,3 21,0 43 57 75 998 1.010 1.018 WNW 17,2 95,0 6,2
10/2019 10,5 15,4 19,9 19,4 14,7 24,1 32,5 22,0 38 69 89 1.008 1.017 1.022 W 6,3 51,9 27,8
09/2019 14,3 18,9 21,6 22,6 19,4 26,8 32,2 17,9 35 74 92 1.010 1.018 1.025 SSE 8,3 58,0 93,2
08/2019 16,8 20,9 25,1 25,4 24,9 30,6 39,6 22,8 39 71 84 1.011 1.017 1.021 S 7,6 59,6 27,0
07/2019 20,0 21,4 24,5 25,7 26,6 31,0 36,3 16,3 42 68 82 1.007 1.015 1.022 SSE 8,0 63,0 6,6
Tots els anys disponibles
Temperatura (°C)
Humitat relativa (%)
Velocitat del vent i ràfega màxima (km/h)
Direcció del vent (°)
Pressió (hPa)
Precipitació (mm)
Nota sobre les dades: s'avisa a l'usuari de la provisionalitat i no oficialitat d'aquestes dades
Logo AVAMET blanc
Web allotjada a Sollutia
Llicència de Creative CommonsLa web d'AVAMET i els seus continguts estan subjectes a una llicència de
Reconeixement - No Comercial - Compartir igual
Últimes estacions:  Chera (Ajuntament soci), Benifaió (Inforatge), Altea - Com. Regants (Soci) - - -